Time;durP1;ratioP1;P1;durP2;ratioP2;P2;SDS_P1;SDS_P2;PMS_P1;PMS_P2;Temp;Humidity;BMP_temperature;BMP_pressure;BME280_temperature;BME280_humidity;BME280_pressure;Samples;Min_cycle;Max_cycle;Signal;HPM_P1;HPM_P2
2022/01/15 00:02:17;;;;;;;32.72;7.28;;;6.00;99.00;;;;;;5136201;27;20041;-81
2022/01/15 00:04:43;;;;;;;65.32;9.95;;;6.00;99.00;;;;;;5119332;27;20461;-81
2022/01/15 00:07:10;;;;;;;53.15;9.77;;;6.00;99.00;;;;;;5118770;27;20490;-81
2022/01/15 00:09:37;;;;;;;52.95;10.15;;;6.00;99.10;;;;;;5153170;27;20043;-81
2022/01/15 00:12:04;;;;;;;53.47;10.23;;;6.00;99.10;;;;;;5135921;27;20088;-81
2022/01/15 00:14:36;;;;;;;51.55;9.48;;;6.00;99.10;;;;;;5136133;27;20113;-81
2022/01/15 00:17:15;;;;;;;82.35;16.05;;;6.00;99.00;;;;;;5153304;27;20494;-81
2022/01/15 00:19:42;;;;;;;116.53;16.05;;;5.90;99.10;;;;;;5153056;27;20122;-81
2022/01/15 00:22:16;;;;;;;79.35;12.45;;;5.90;99.10;;;;;;5119072;27;20379;-81
2022/01/15 00:24:43;;;;;;;165.90;16.73;;;5.90;99.00;;;;;;5135852;27;20035;-81
2022/01/15 00:27:10;;;;;;;89.13;13.35;;;5.90;99.00;;;;;;5153033;27;20042;-82
2022/01/15 00:29:36;;;;;;;83.72;13.55;;;5.90;99.00;;;;;;5118768;27;20039;-81
2022/01/15 00:32:04;;;;;;;65.93;10.73;;;5.90;99.10;;;;;;5153048;27;20510;-81
2022/01/15 00:34:31;;;;;;;85.82;11.82;;;5.80;99.10;;;;;;5118677;27;20061;-82
2022/01/15 00:36:57;;;;;;;52.50;10.48;;;5.80;99.10;;;;;;5101552;27;20050;-81
2022/01/15 00:39:25;;;;;;;98.63;19.83;;;5.90;99.10;;;;;;5135578;27;20126;-81
2022/01/15 00:41:51;;;;;;;96.43;12.50;;;5.90;99.10;;;;;;5136155;27;20041;-82
2022/01/15 00:44:17;;;;;;;52.15;8.75;;;5.90;99.10;;;;;;5135662;27;20034;-81
2022/01/15 00:46:43;;;;;;;133.38;12.45;;;5.80;99.10;;;;;;5135486;27;20074;-81
2022/01/15 00:49:09;;;;;;;63.47;7.57;;;5.80;99.10;;;;;;5135785;27;20070;-81
2022/01/15 00:51:35;;;;;;;132.73;11.80;;;5.80;99.10;;;;;;5135602;27;20539;-82
2022/01/15 00:54:02;;;;;;;65.88;8.30;;;5.80;99.10;;;;;;5135575;27;20042;-82
2022/01/15 00:56:27;;;;;;;94.72;8.75;;;5.80;99.10;;;;;;5152693;27;20114;-81
2022/01/15 00:58:53;;;;;;;53.17;7.55;;;5.80;99.10;;;;;;5136552;27;20046;-82
2022/01/15 01:01:20;;;;;;;146.45;11.80;;;5.80;99.10;;;;;;5122516;27;20049;-82
2022/01/15 01:03:48;;;;;;;124.18;10.85;;;5.70;99.10;;;;;;5122501;27;20035;-82
2022/01/15 01:06:14;;;;;;;110.25;9.93;;;5.70;99.10;;;;;;5122055;27;20034;-81
2022/01/15 01:08:39;;;;;;;56.25;7.70;;;5.80;99.10;;;;;;5139168;27;20045;-81
2022/01/15 01:11:12;;;;;;;47.17;7.72;;;5.70;99.10;;;;;;5139343;27;20137;-81
2022/01/15 01:24:29;;;;;;;60.08;9.02;;;5.80;99.10;;;;;;5155059;27;20436;-80
2022/01/15 01:27:11;;;;;;;53.50;8.55;;;5.70;99.10;;;;;;5154497;27;20039;-80
2022/01/15 01:30:07;;;;;;;36.50;7.35;;;5.80;99.10;;;;;;5139702;27;20222;-80
2022/01/15 01:35:09;;;;;;;52.83;8.15;;;5.70;99.20;;;;;;5154291;27;20051;-80
2022/01/15 01:37:42;;;;;;;23.92;5.93;;;5.70;99.20;;;;;;5139444;27;20085;-79
2022/01/15 01:40:25;;;;;;;23.08;6.18;;;5.80;99.10;;;;;;5155776;27;20047;-79
2022/01/15 01:43:07;;;;;;;31.55;7.18;;;5.80;99.10;;;;;;5141019;27;20106;-79
2022/01/15 01:45:33;;;;;;;20.35;5.93;;;5.80;99.20;;;;;;5140836;27;20394;-80
2022/01/15 01:47:58;;;;;;;81.05;9.10;;;5.80;99.20;;;;;;5121177;27;20046;-79
2022/01/15 01:50:27;;;;;;;44.35;7.40;;;5.80;99.20;;;;;;5138234;27;20034;-79
2022/01/15 01:52:57;;;;;;;30.83;7.10;;;5.80;99.20;;;;;;5138469;27;20442;-79
2022/01/15 01:55:25;;;;;;;60.65;8.63;;;5.80;99.20;;;;;;5155378;27;20498;-79
2022/01/15 01:57:53;;;;;;;40.10;7.75;;;5.80;99.20;;;;;;5155173;27;20068;-79
2022/01/15 02:00:20;;;;;;;50.17;8.70;;;5.80;99.20;;;;;;5155237;27;20077;-80
2022/01/15 02:02:51;;;;;;;56.67;9.80;;;5.80;99.20;;;;;;5138038;27;20505;-79
2022/01/15 02:05:17;;;;;;;33.20;7.82;;;5.90;99.20;;;;;;5155279;27;20123;-79
2022/01/15 02:07:44;;;;;;;16.45;6.97;;;5.80;99.20;;;;;;5155124;27;20088;-79
2022/01/15 02:10:13;;;;;;;17.80;6.72;;;5.80;99.10;;;;;;5154304;27;20081;-80
2022/01/15 02:12:40;;;;;;;26.67;7.07;;;5.80;99.20;;;;;;5155043;27;20122;-80
2022/01/15 02:15:17;;;;;;;17.38;6.90;;;5.80;99.20;;;;;;5137647;27;20474;-80
2022/01/15 02:17:44;;;;;;;24.75;7.70;;;5.80;99.20;;;;;;5139162;27;20489;-80
2022/01/15 02:25:50;;;;;;;12.57;5.45;;;5.80;99.20;;;;;;5154790;27;20041;-79
2022/01/15 02:28:26;;;;;;;10.18;5.03;;;5.80;99.20;;;;;;5155018;27;20043;-80
2022/01/15 02:30:56;;;;;;;13.07;5.00;;;5.80;99.20;;;;;;5137637;27;20049;-80
2022/01/15 02:33:22;;;;;;;16.85;4.80;;;5.80;99.20;;;;;;5154653;27;20050;-79
2022/01/15 02:35:48;;;;;;;12.40;4.95;;;5.80;99.20;;;;;;5137218;27;20082;-80
2022/01/15 02:38:14;;;;;;;14.45;4.82;;;5.80;99.20;;;;;;5154558;27;20093;-80
2022/01/15 02:40:41;;;;;;;16.77;5.18;;;5.80;99.20;;;;;;5137225;27;20031;-80
2022/01/15 02:43:11;;;;;;;9.45;4.35;;;5.80;99.20;;;;;;5137275;27;20043;-80
2022/01/15 02:45:41;;;;;;;11.25;4.82;;;5.80;99.20;;;;;;5154599;27;20091;-79
2022/01/15 02:48:13;;;;;;;15.60;5.47;;;5.80;99.20;;;;;;5137075;27;20129;-79
2022/01/15 02:50:41;;;;;;;13.13;4.93;;;5.80;99.20;;;;;;5136926;27;20057;-79
2022/01/15 02:53:09;;;;;;;17.63;6.85;;;5.80;99.20;;;;;;5154342;27;20482;-80
2022/01/15 02:55:35;;;;;;;19.83;7.20;;;5.70;99.20;;;;;;5154442;27;20189;-80
2022/01/15 02:58:01;;;;;;;12.93;6.15;;;5.70;99.20;;;;;;5154095;27;20490;-80
2022/01/15 03:00:27;;;;;;;17.02;6.50;;;5.70;99.20;;;;;;5154143;27;20049;-80
2022/01/15 03:02:53;;;;;;;21.67;8.00;;;5.70;99.20;;;;;;5154060;27;20041;-80
2022/01/15 03:05:20;;;;;;;18.48;7.63;;;5.70;99.20;;;;;;5154108;27;20039;-80
2022/01/15 03:07:47;;;;;;;20.75;8.43;;;5.70;99.20;;;;;;5136936;27;20092;-80
2022/01/15 03:10:12;;;;;;;16.98;7.50;;;5.70;99.20;;;;;;5136677;27;20063;-80
2022/01/15 03:12:39;;;;;;;10.13;5.63;;;5.70;99.20;;;;;;5119602;27;20031;-80
2022/01/15 03:15:07;;;;;;;26.17;8.30;;;5.70;99.20;;;;;;5136867;27;20042;-80
2022/01/15 03:17:33;;;;;;;28.38;9.02;;;5.60;99.20;;;;;;5153930;27;20096;-80
2022/01/15 03:20:00;;;;;;;39.50;10.20;;;5.60;99.20;;;;;;5153754;27;20126;-80
2022/01/15 03:22:26;;;;;;;21.38;8.45;;;5.60;99.20;;;;;;5153478;27;20039;-80
2022/01/15 03:24:51;;;;;;;26.80;8.90;;;5.60;99.20;;;;;;5136546;27;20103;-80
2022/01/15 03:27:18;;;;;;;21.73;7.43;;;5.60;99.20;;;;;;5119163;27;20033;-80
2022/01/15 03:29:44;;;;;;;27.48;8.70;;;5.70;99.20;;;;;;5136414;27;20122;-81
2022/01/15 03:32:10;;;;;;;43.40;12.40;;;5.70;99.20;;;;;;5153543;27;20126;-80
2022/01/15 03:34:36;;;;;;;40.80;12.80;;;5.70;99.20;;;;;;5136110;27;20051;-80
2022/01/15 03:37:02;;;;;;;20.65;8.13;;;5.70;99.20;;;;;;5136377;27;20513;-81
2022/01/15 03:39:28;;;;;;;24.10;9.20;;;5.70;99.20;;;;;;5153551;27;20039;-80
2022/01/15 03:41:54;;;;;;;34.35;10.73;;;5.60;99.20;;;;;;5136161;27;20582;-79
2022/01/15 03:44:20;;;;;;;22.23;9.18;;;5.60;99.20;;;;;;5153698;27;20062;-80
2022/01/15 03:46:46;;;;;;;21.13;8.45;;;5.60;99.20;;;;;;5136163;27;20491;-80
2022/01/15 03:49:11;;;;;;;22.58;8.70;;;5.60;99.20;;;;;;5153405;27;20046;-80
2022/01/15 03:51:37;;;;;;;23.08;9.15;;;5.70;99.20;;;;;;5136191;27;20046;-80
2022/01/15 03:54:03;;;;;;;26.42;9.57;;;5.60;99.20;;;;;;5136141;27;20109;-81
2022/01/15 03:56:31;;;;;;;21.13;8.48;;;5.60;99.10;;;;;;5153247;27;20091;-80
2022/01/15 03:58:56;;;;;;;24.88;9.20;;;5.70;99.20;;;;;;5153231;27;20083;-80
2022/01/15 04:01:22;;;;;;;24.33;9.73;;;5.60;99.10;;;;;;5136022;27;20424;-80
2022/01/15 04:03:48;;;;;;;21.77;8.80;;;5.60;99.20;;;;;;5119053;27;20031;-80
2022/01/15 04:06:14;;;;;;;26.52;9.88;;;5.60;99.20;;;;;;5135912;27;20035;-80
2022/01/15 04:08:40;;;;;;;19.10;9.05;;;5.60;99.20;;;;;;5135990;27;20037;-80
2022/01/15 04:11:06;;;;;;;19.55;8.15;;;5.60;99.20;;;;;;5119168;27;20039;-80
2022/01/15 04:13:31;;;;;;;13.02;6.22;;;5.60;99.20;;;;;;5153163;27;20099;-80
2022/01/15 04:15:57;;;;;;;11.88;4.80;;;5.60;99.10;;;;;;5136032;27;20034;-80
2022/01/15 04:18:23;;;;;;;12.10;5.45;;;5.60;99.10;;;;;;5136003;27;20402;-80
2022/01/15 04:20:51;;;;;;;12.95;5.60;;;5.60;99.10;;;;;;5118797;27;20046;-80
2022/01/15 04:23:17;;;;;;;7.50;3.90;;;5.60;99.10;;;;;;5153355;27;20042;-80
2022/01/15 04:25:43;;;;;;;11.32;5.72;;;5.60;99.10;;;;;;5118721;27;20393;-81
2022/01/15 04:28:11;;;;;;;12.30;5.85;;;5.60;99.20;;;;;;5118876;27;20042;-80
2022/01/15 04:30:40;;;;;;;11.25;5.28;;;5.60;99.10;;;;;;5135707;27;20038;-80
2022/01/15 04:33:06;;;;;;;16.17;7.35;;;5.60;99.20;;;;;;5135763;27;20046;-80
2022/01/15 04:35:32;;;;;;;12.73;5.85;;;5.60;99.20;;;;;;5122310;27;20055;-80
2022/01/15 04:38:06;;;;;;;7.55;4.05;;;5.60;99.10;;;;;;5139655;27;20051;-80
2022/01/15 04:40:31;;;;;;;12.32;4.28;;;5.60;99.20;;;;;;5156895;27;20117;-80
2022/01/15 04:42:57;;;;;;;7.07;3.70;;;5.60;99.10;;;;;;5139520;27;20122;-80
2022/01/15 04:45:23;;;;;;;8.43;3.55;;;5.60;99.10;;;;;;5139500;27;20035;-80
2022/01/15 04:47:48;;;;;;;8.07;3.75;;;5.60;99.10;;;;;;5139713;27;20133;-80
2022/01/15 04:50:16;;;;;;;6.63;2.42;;;5.60;99.10;;;;;;5122522;27;20436;-80
2022/01/15 04:52:43;;;;;;;5.93;2.40;;;5.60;99.10;;;;;;5139937;27;20031;-81
2022/01/15 04:55:10;;;;;;;3.95;2.15;;;5.50;99.10;;;;;;5139475;27;20432;-81
2022/01/15 04:57:36;;;;;;;6.40;2.90;;;5.50;99.10;;;;;;5139112;27;20570;-80
2022/01/15 05:00:09;;;;;;;4.93;2.97;;;5.50;99.10;;;;;;5139282;27;20113;-80
2022/01/15 05:02:35;;;;;;;4.38;2.28;;;5.50;99.10;;;;;;5156470;27;20030;-80
2022/01/15 05:05:01;;;;;;;4.45;2.45;;;5.50;99.10;;;;;;5156459;27;20398;-80
2022/01/15 05:07:27;;;;;;;4.47;2.38;;;5.50;99.10;;;;;;5156277;27;20046;-80
2022/01/15 05:09:52;;;;;;;4.05;2.30;;;5.50;99.10;;;;;;5139281;27;20039;-80
2022/01/15 05:14:53;;;;;;;3.95;2.28;;;5.50;99.00;;;;;;5140518;27;20078;-80
2022/01/15 05:17:18;;;;;;;8.18;2.67;;;5.50;99.00;;;;;;5138843;27;20085;-80
2022/01/15 05:19:44;;;;;;;6.97;3.10;;;5.50;99.00;;;;;;5138984;27;20034;-81
2022/01/15 05:22:10;;;;;;;6.68;3.00;;;5.50;99.00;;;;;;5138973;27;20067;-80
2022/01/15 05:24:35;;;;;;;4.75;2.30;;;5.50;99.00;;;;;;5156022;27;20030;-81
2022/01/15 05:27:02;;;;;;;8.52;2.90;;;5.50;99.00;;;;;;5155915;27;20057;-81
2022/01/15 05:29:28;;;;;;;5.70;2.40;;;5.50;99.00;;;;;;5138618;27;20634;-81
2022/01/15 05:31:54;;;;;;;5.15;2.63;;;5.50;99.00;;;;;;5138881;27;20125;-81
2022/01/15 05:34:19;;;;;;;6.95;3.53;;;5.50;99.00;;;;;;5140448;27;20049;-81
2022/01/15 05:36:46;;;;;;;6.13;3.35;;;5.50;99.00;;;;;;5124585;27;20053;-81
2022/01/15 05:39:12;;;;;;;7.60;3.92;;;5.50;99.00;;;;;;5141889;27;20034;-81
2022/01/15 05:41:38;;;;;;;9.43;4.03;;;5.50;99.00;;;;;;5141870;27;20041;-81
2022/01/15 05:44:04;;;;;;;6.95;3.85;;;5.50;98.90;;;;;;5141992;27;20030;-81
2022/01/15 05:46:32;;;;;;;10.07;4.32;;;5.50;99.00;;;;;;5158955;27;20030;-81
2022/01/15 05:48:58;;;;;;;7.63;3.78;;;5.50;98.90;;;;;;5124954;27;20125;-81
2022/01/15 05:51:29;;;;;;;8.48;4.38;;;5.40;98.90;;;;;;5124758;27;20470;-81
2022/01/15 05:53:59;;;;;;;7.65;4.18;;;5.40;98.90;;;;;;5141656;27;20042;-80
2022/01/15 05:56:25;;;;;;;9.25;3.78;;;5.40;98.90;;;;;;5141464;27;20042;-81
2022/01/15 05:58:50;;;;;;;6.18;3.38;;;5.40;98.90;;;;;;5141684;27;20468;-81
2022/01/15 06:01:17;;;;;;;6.93;3.20;;;5.30;98.80;;;;;;5141574;27;20118;-80
2022/01/15 06:03:42;;;;;;;5.05;2.92;;;5.30;98.80;;;;;;5141570;27;20121;-81
2022/01/15 06:06:08;;;;;;;3.67;2.30;;;5.30;98.80;;;;;;5124216;27;20069;-81
2022/01/15 06:08:34;;;;;;;4.60;2.20;;;5.30;98.80;;;;;;5124262;27;20046;-81
2022/01/15 06:10:59;;;;;;;4.80;2.33;;;5.20;98.70;;;;;;5141344;27;20042;-81
2022/01/15 06:13:25;;;;;;;3.47;1.63;;;5.20;98.70;;;;;;5158522;27;20042;-81
2022/01/15 06:15:51;;;;;;;2.95;1.45;;;5.20;98.60;;;;;;5141546;27;20053;-81
2022/01/15 06:18:16;;;;;;;3.42;1.60;;;5.10;98.50;;;;;;5141165;27;20041;-81
2022/01/15 06:20:42;;;;;;;4.38;3.30;;;5.10;98.40;;;;;;5158556;27;20041;-80
2022/01/15 06:23:08;;;;;;;4.30;1.67;;;5.10;98.50;;;;;;5141110;27;20389;-81
2022/01/15 06:25:33;;;;;;;3.33;1.58;;;5.10;98.50;;;;;;5158516;27;20044;-80
2022/01/15 06:27:59;;;;;;;2.80;1.92;;;5.10;98.40;;;;;;5123919;27;20046;-81
2022/01/15 06:30:25;;;;;;;2.75;1.85;;;5.10;98.50;;;;;;5106894;27;20034;-80
2022/01/15 06:32:50;;;;;;;5.90;3.40;;;5.10;98.50;;;;;;5140890;27;20043;-80
2022/01/15 06:35:17;;;;;;;3.70;2.60;;;5.10;98.50;;;;;;5123731;27;20118;-81
2022/01/15 06:37:44;;;;;;;3.22;1.45;;;5.00;98.40;;;;;;5158121;27;20046;-80
2022/01/15 06:40:11;;;;;;;2.95;1.60;;;5.00;98.20;;;;;;5158403;27;20037;-81
2022/01/15 06:42:37;;;;;;;2.25;1.33;;;5.00;98.10;;;;;;5158430;27;20481;-80
2022/01/15 06:45:04;;;;;;;2.47;1.63;;;5.00;98.30;;;;;;5141249;27;20036;-80
2022/01/15 06:47:30;;;;;;;3.33;1.70;;;5.00;98.30;;;;;;5158241;27;20038;-80
2022/01/15 06:49:56;;;;;;;2.92;1.63;;;5.00;98.30;;;;;;5141094;27;20038;-81
2022/01/15 06:52:24;;;;;;;4.43;3.20;;;5.00;98.30;;;;;;5141053;27;20417;-80
2022/01/15 06:54:50;;;;;;;4.20;2.05;;;5.00;98.30;;;;;;5140969;27;20564;-80
2022/01/15 06:57:15;;;;;;;3.92;2.50;;;5.00;98.30;;;;;;5156693;27;20130;-80
2022/01/15 06:59:44;;;;;;;3.35;1.70;;;5.00;98.40;;;;;;5139058;27;20048;-80
2022/01/15 07:02:11;;;;;;;3.70;1.92;;;5.00;98.40;;;;;;5157872;27;20042;-81
2022/01/15 07:04:37;;;;;;;4.22;2.42;;;5.00;98.30;;;;;;5157636;27;20442;-80
2022/01/15 07:07:03;;;;;;;2.88;1.42;;;5.00;98.30;;;;;;5140390;27;20117;-80
2022/01/15 07:09:29;;;;;;;4.20;1.58;;;5.00;98.30;;;;;;5157445;27;20042;-80
2022/01/15 07:11:56;;;;;;;4.15;1.70;;;5.00;98.40;;;;;;5140108;27;20049;-80
2022/01/15 07:14:22;;;;;;;5.00;2.15;;;5.00;98.30;;;;;;5157740;27;20074;-79
2022/01/15 07:16:48;;;;;;;4.68;1.98;;;5.00;98.30;;;;;;5157250;27;20486;-79
2022/01/15 07:19:13;;;;;;;3.97;1.90;;;4.90;98.40;;;;;;5157219;27;20041;-80
2022/01/15 07:21:39;;;;;;;5.65;2.20;;;5.00;98.40;;;;;;5122886;27;20398;-79
2022/01/15 07:24:05;;;;;;;6.15;2.67;;;5.00;98.50;;;;;;5140096;27;20042;-79
2022/01/15 07:26:30;;;;;;;5.47;2.58;;;5.00;98.50;;;;;;5139981;27;20035;-79
2022/01/15 07:28:58;;;;;;;4.47;2.80;;;5.00;98.40;;;;;;5157005;27;20375;-79
2022/01/15 07:31:23;;;;;;;7.63;3.58;;;5.00;98.50;;;;;;5140191;27;20053;-79
2022/01/15 07:33:49;;;;;;;5.80;2.70;;;5.00;98.50;;;;;;5139695;27;20050;-80
2022/01/15 07:36:16;;;;;;;5.10;2.58;;;5.00;98.50;;;;;;5156835;27;20065;-79
2022/01/15 07:38:43;;;;;;;4.80;2.35;;;5.00;98.40;;;;;;5122946;27;20398;-79
2022/01/15 07:41:13;;;;;;;5.15;2.33;;;5.00;98.40;;;;;;5139918;27;20426;-80
2022/01/15 07:43:39;;;;;;;5.10;2.92;;;5.00;98.40;;;;;;5123252;27;20045;-80
2022/01/15 07:46:05;;;;;;;6.35;2.28;;;5.00;98.40;;;;;;5157002;27;20034;-81
2022/01/15 07:48:31;;;;;;;3.05;1.73;;;4.90;98.30;;;;;;5139303;27;20049;-80
2022/01/15 07:50:56;;;;;;;3.40;1.90;;;4.90;98.30;;;;;;5156562;27;20038;-80
2022/01/15 07:53:22;;;;;;;3.50;2.30;;;4.80;98.20;;;;;;5139372;27;20038;-80
2022/01/15 07:55:48;;;;;;;5.78;2.40;;;4.80;98.30;;;;;;5139741;27;20034;-80
2022/01/15 07:58:14;;;;;;;5.50;2.40;;;4.80;98.20;;;;;;5139744;27;20117;-80
2022/01/15 08:00:41;;;;;;;5.22;2.20;;;4.80;98.30;;;;;;5139492;27;20541;-80
2022/01/15 08:03:07;;;;;;;6.43;2.70;;;4.80;98.30;;;;;;5139716;27;20133;-80
2022/01/15 08:05:34;;;;;;;5.70;2.45;;;4.80;98.30;;;;;;5139602;27;20075;-79
2022/01/15 08:07:59;;;;;;;4.18;2.28;;;4.80;98.30;;;;;;5157030;27;20442;-81
2022/01/15 08:10:25;;;;;;;5.78;2.78;;;4.80;98.30;;;;;;5126393;27;20042;-80
2022/01/15 08:12:51;;;;;;;7.97;2.78;;;4.80;98.30;;;;;;5126503;27;20037;-80
2022/01/15 08:15:20;;;;;;;5.57;3.50;;;4.90;98.30;;;;;;5160731;27;20030;-80
2022/01/15 08:17:46;;;;;;;7.78;3.63;;;4.80;98.30;;;;;;5160972;27;20085;-80
2022/01/15 08:20:12;;;;;;;6.28;3.00;;;4.80;98.30;;;;;;5126432;27;20034;-80
2022/01/15 08:22:40;;;;;;;6.93;4.00;;;4.90;98.40;;;;;;5143763;27;20046;-80
2022/01/15 08:25:07;;;;;;;8.68;3.40;;;4.90;98.40;;;;;;5161273;27;20038;-80
2022/01/15 08:27:33;;;;;;;6.88;3.40;;;4.90;98.40;;;;;;5143756;27;20133;-81
2022/01/15 08:29:59;;;;;;;5.70;3.08;;;4.90;98.30;;;;;;5143239;27;20537;-80
2022/01/15 08:32:24;;;;;;;6.50;3.03;;;4.90;98.40;;;;;;5126601;27;20094;-80
2022/01/15 08:34:50;;;;;;;5.28;3.20;;;4.80;98.30;;;;;;5125840;27;20297;-80
2022/01/15 08:37:16;;;;;;;6.30;4.00;;;4.80;98.30;;;;;;5143218;27;20038;-80
2022/01/15 08:39:41;;;;;;;10.07;6.47;;;4.80;98.30;;;;;;5160315;27;20034;-80
2022/01/15 08:42:09;;;;;;;10.60;5.20;;;4.80;98.20;;;;;;5143109;27;20030;-80
2022/01/15 08:44:36;;;;;;;9.02;3.72;;;4.80;98.20;;;;;;5142925;27;20034;-80
2022/01/15 08:47:03;;;;;;;7.63;4.10;;;4.80;98.20;;;;;;5160557;27;20053;-80
2022/01/15 08:49:28;;;;;;;8.02;3.90;;;4.80;98.30;;;;;;5143352;27;20489;-80
2022/01/15 08:51:55;;;;;;;7.38;3.67;;;4.80;98.20;;;;;;5160357;27;20034;-79
2022/01/15 08:54:20;;;;;;;6.38;4.13;;;4.80;98.10;;;;;;5143069;27;20042;-79
2022/01/15 08:56:46;;;;;;;6.07;2.92;;;4.70;98.10;;;;;;5125716;27;20045;-80
2022/01/15 08:59:12;;;;;;;7.40;3.22;;;4.70;98.20;;;;;;5125679;27;20446;-80
2022/01/15 09:01:38;;;;;;;6.25;3.00;;;4.70;98.20;;;;;;5125989;27;20034;-80
2022/01/15 09:04:04;;;;;;;5.38;2.80;;;4.70;98.10;;;;;;5144057;27;20474;-81
2022/01/15 09:06:29;;;;;;;7.18;3.80;;;4.80;98.10;;;;;;5160043;27;20091;-80
2022/01/15 09:08:55;;;;;;;6.80;3.50;;;4.70;97.90;;;;;;5142505;27;20041;-80
2022/01/15 09:11:21;;;;;;;6.00;2.97;;;4.70;98.00;;;;;;5159667;27;20084;-80
2022/01/15 09:13:48;;;;;;;5.97;2.70;;;4.70;98.00;;;;;;5125516;27;20130;-80
2022/01/15 09:16:14;;;;;;;5.10;2.92;;;4.70;98.00;;;;;;5142776;27;20037;-79
2022/01/15 09:18:40;;;;;;;4.82;2.40;;;4.70;98.00;;;;;;5159819;27;20406;-80
2022/01/15 09:21:06;;;;;;;3.95;2.20;;;4.70;98.00;;;;;;5141962;27;20037;-80
2022/01/15 09:23:31;;;;;;;6.20;3.00;;;4.70;98.00;;;;;;5159755;27;20038;-81
2022/01/15 09:25:58;;;;;;;5.38;3.28;;;4.70;98.00;;;;;;5108219;27;20034;-80
2022/01/15 09:31:12;;;;;;;8.13;4.25;;;4.70;98.00;;;;;;5159336;27;20105;-79
2022/01/15 09:33:38;;;;;;;6.78;3.50;;;4.70;98.00;;;;;;5142565;27;20042;-81
2022/01/15 09:36:05;;;;;;;8.30;4.68;;;4.80;98.00;;;;;;5142373;27;20051;-80
2022/01/15 09:38:31;;;;;;;10.35;4.38;;;4.70;98.00;;;;;;5142522;27;20664;-80
2022/01/15 09:40:57;;;;;;;11.35;5.60;;;4.70;98.00;;;;;;5122299;27;20069;-81
2022/01/15 09:43:23;;;;;;;9.13;5.13;;;4.80;98.10;;;;;;5104145;27;20058;-81
2022/01/15 09:45:49;;;;;;;9.20;5.60;;;4.80;98.00;;;;;;5121863;27;20087;-79
2022/01/15 09:48:16;;;;;;;7.30;3.60;;;4.80;98.00;;;;;;5155726;27;20053;-80
2022/01/15 09:50:44;;;;;;;6.53;3.90;;;4.80;97.90;;;;;;5154370;27;20046;-80
2022/01/15 09:53:16;;;;;;;7.90;4.45;;;4.70;98.00;;;;;;5154568;27;20043;-80
2022/01/15 09:55:43;;;;;;;10.18;5.20;;;4.70;98.00;;;;;;5156842;27;20042;-80
2022/01/15 09:58:09;;;;;;;8.45;3.95;;;4.70;98.00;;;;;;5120206;27;20038;-80
2022/01/15 10:00:35;;;;;;;7.45;3.83;;;4.80;98.00;;;;;;5139172;27;20448;-80
2022/01/15 10:03:01;;;;;;;9.50;4.25;;;4.80;98.00;;;;;;5139310;27;20114;-80
2022/01/15 10:05:27;;;;;;;6.55;3.40;;;4.80;98.20;;;;;;5122321;27;20129;-80
2022/01/15 10:08:03;;;;;;;9.15;4.68;;;4.80;98.20;;;;;;5156414;27;20106;-80
2022/01/15 10:10:32;;;;;;;8.70;4.70;;;4.80;98.20;;;;;;5138645;27;20106;-80
2022/01/15 10:13:25;;;;;;;8.43;5.03;;;4.80;98.30;;;;;;5139343;27;20038;-79
2022/01/15 10:16:00;;;;;;;13.57;5.65;;;4.80;98.20;;;;;;5156231;27;20042;-80
2022/01/15 10:18:31;;;;;;;11.77;6.45;;;4.80;98.20;;;;;;5138745;27;20065;-79
2022/01/15 10:21:18;;;;;;;14.95;6.60;;;4.70;98.10;;;;;;5155941;27;20034;-79
2022/01/15 10:23:56;;;;;;;12.27;5.18;;;4.80;98.10;;;;;;5155321;27;20038;-80
2022/01/15 10:26:27;;;;;;;17.98;6.28;;;4.80;98.20;;;;;;5156249;27;20038;-79
2022/01/15 10:28:59;;;;;;;18.13;6.70;;;4.80;98.30;;;;;;5163330;27;20049;-81
2022/01/15 10:31:29;;;;;;;17.63;6.53;;;4.80;98.30;;;;;;5183550;27;20073;-81
2022/01/15 10:33:56;;;;;;;20.27;7.53;;;4.90;98.20;;;;;;5156354;27;20038;-81
2022/01/15 10:36:30;;;;;;;20.65;8.35;;;4.80;98.30;;;;;;5155686;27;20093;-81
2022/01/15 10:39:20;;;;;;;17.02;7.50;;;4.90;98.40;;;;;;5155717;27;20047;-81
2022/01/15 10:41:48;;;;;;;12.25;6.15;;;4.90;98.40;;;;;;5155855;27;20042;-80
2022/01/15 10:44:37;;;;;;;12.48;5.55;;;4.90;98.40;;;;;;5138571;27;20026;-80
2022/01/15 10:47:12;;;;;;;10.32;5.40;;;4.80;98.30;;;;;;5127802;27;20486;-80
2022/01/15 10:49:39;;;;;;;13.63;4.88;;;4.80;98.40;;;;;;5135559;27;20070;-79
2022/01/15 10:52:17;;;;;;;16.33;5.60;;;4.80;98.30;;;;;;5137509;27;20038;-80
2022/01/15 10:54:49;;;;;;;17.48;7.15;;;4.80;98.30;;;;;;5155145;27;20064;-80
2022/01/15 10:57:17;;;;;;;24.92;6.30;;;4.80;98.30;;;;;;5155227;27;20046;-80
2022/01/15 11:00:14;;;;;;;25.52;9.10;;;4.70;98.20;;;;;;5120478;27;20082;-80
2022/01/15 11:03:00;;;;;;;30.15;9.32;;;4.70;98.30;;;;;;5120240;27;20049;-80
2022/01/15 11:05:29;;;;;;;54.22;11.63;;;4.70;98.30;;;;;;5154714;27;20061;-81
2022/01/15 11:08:18;;;;;;;27.50;11.55;;;4.70;98.30;;;;;;5165426;27;20034;-81
2022/01/15 11:10:54;;;;;;;31.08;10.65;;;4.70;98.30;;;;;;5152913;27;20504;-80
2022/01/15 11:13:23;;;;;;;58.47;12.38;;;4.70;98.30;;;;;;5154706;27;20709;-81
2022/01/15 11:15:54;;;;;;;52.35;14.07;;;4.70;98.30;;;;;;5153985;27;20985;-81
2022/01/15 11:18:27;;;;;;;34.67;13.52;;;4.70;98.30;;;;;;5154333;27;20070;-80
2022/01/15 11:20:55;;;;;;;64.40;17.50;;;4.70;98.30;;;;;;5153707;27;20509;-80
2022/01/15 11:23:24;;;;;;;55.92;15.32;;;4.70;98.30;;;;;;5154513;27;20038;-81
2022/01/15 11:25:52;;;;;;;40.10;14.73;;;4.60;98.30;;;;;;5136815;27;20042;-80
2022/01/15 11:28:26;;;;;;;45.83;14.23;;;4.60;98.30;;;;;;5137626;27;20045;-81
2022/01/15 11:30:58;;;;;;;56.60;16.98;;;4.60;98.30;;;;;;5153506;27;20057;-81
2022/01/15 11:33:27;;;;;;;77.80;18.63;;;4.60;98.40;;;;;;5154961;27;20171;-81
2022/01/15 11:35:53;;;;;;;55.28;17.88;;;4.60;98.30;;;;;;5150395;27;20055;-81
2022/01/15 11:38:39;;;;;;;59.45;18.70;;;4.60;98.40;;;;;;5151162;27;20050;-81
2022/01/15 11:41:06;;;;;;;64.85;20.52;;;4.60;98.40;;;;;;5150904;27;20045;-81
2022/01/15 11:43:33;;;;;;;92.45;24.13;;;4.60;98.50;;;;;;5150523;27;20062;-81
2022/01/15 11:46:23;;;;;;;147.57;25.88;;;4.60;98.40;;;;;;5150146;27;20050;-80
2022/01/15 11:48:50;;;;;;;109.93;25.48;;;4.60;98.40;;;;;;5132085;27;20058;-81
2022/01/15 11:51:17;;;;;;;64.93;23.17;;;4.60;98.40;;;;;;5131316;27;20039;-80
2022/01/15 11:53:54;;;;;;;86.00;22.55;;;4.60;98.50;;;;;;5150728;27;20409;-80
2022/01/15 11:56:22;;;;;;;71.05;20.08;;;4.60;98.50;;;;;;5113707;27;20042;-80
2022/01/15 11:58:49;;;;;;;104.22;22.27;;;4.60;98.50;;;;;;5130232;27;20566;-80
2022/01/15 12:01:41;;;;;;;85.00;21.77;;;4.60;98.60;;;;;;5128716;27;20031;-81
2022/01/15 12:04:32;;;;;;;74.70;22.33;;;4.60;98.50;;;;;;5145203;27;20035;-81
2022/01/15 12:07:07;;;;;;;91.82;21.65;;;4.60;98.50;;;;;;5147910;27;20043;-80
2022/01/15 12:09:37;;;;;;;121.20;23.95;;;4.60;98.60;;;;;;5129377;27;20054;-80
2022/01/15 12:12:39;;;;;;;77.93;20.48;;;4.60;98.60;;;;;;5147646;27;20470;-80
2022/01/15 12:15:08;;;;;;;113.85;23.10;;;4.60;98.60;;;;;;5130225;27;20043;-81
2022/01/15 12:17:42;;;;;;;97.40;23.33;;;4.60;98.60;;;;;;5147457;27;20043;-82
2022/01/15 12:20:32;;;;;;;96.95;21.88;;;4.60;98.60;;;;;;5128973;27;20038;-83
2022/01/15 12:23:00;;;;;;;70.45;19.55;;;4.60;98.60;;;;;;5130093;27;20072;-83
2022/01/15 12:25:26;;;;;;;67.45;18.05;;;4.60;98.60;;;;;;5130171;27;20035;-83
2022/01/15 12:28:05;;;;;;;56.88;17.13;;;4.50;98.50;;;;;;5132521;27;20034;-81
2022/01/15 12:30:34;;;;;;;46.97;16.67;;;4.50;98.60;;;;;;5153161;27;20035;-81
2022/01/15 12:33:01;;;;;;;50.75;18.95;;;4.50;98.70;;;;;;5135769;27;20520;-82
2022/01/15 12:35:30;;;;;;;36.67;16.38;;;4.50;98.70;;;;;;5152882;27;20055;-81
2022/01/15 12:38:16;;;;;;;27.60;13.18;;;4.50;98.60;;;;;;5153151;27;20050;-81
2022/01/15 12:41:04;;;;;;;40.33;15.10;;;4.50;98.60;;;;;;5152985;27;20502;-81
2022/01/15 12:43:32;;;;;;;30.75;13.68;;;4.40;98.50;;;;;;5152888;27;20043;-82
2022/01/15 12:46:02;;;;;;;25.73;11.43;;;4.40;98.60;;;;;;5135938;27;20500;-82
2022/01/15 12:48:32;;;;;;;26.50;12.07;;;4.40;98.60;;;;;;5136145;27;20034;-81
2022/01/15 12:51:03;;;;;;;30.30;13.68;;;4.40;98.50;;;;;;5135878;27;20043;-80
2022/01/15 12:53:32;;;;;;;34.22;14.70;;;4.40;98.50;;;;;;5135620;27;20043;-80
2022/01/15 12:55:58;;;;;;;30.23;14.32;;;4.40;98.60;;;;;;5155062;27;20183;-81
2022/01/15 12:58:27;;;;;;;38.55;17.40;;;4.40;98.60;;;;;;5138495;27;20522;-82
2022/01/15 13:00:54;;;;;;;38.92;20.77;;;4.50;98.50;;;;;;5136488;27;20041;-82
2022/01/15 13:03:27;;;;;;;37.47;19.00;;;4.50;98.60;;;;;;5121312;27;20033;-83
2022/01/15 13:05:58;;;;;;;34.05;15.13;;;4.50;98.70;;;;;;5121202;27;20031;-82
2022/01/15 13:08:33;;;;;;;28.55;15.00;;;4.50;98.70;;;;;;5155885;27;20038;-81
2022/01/15 13:11:06;;;;;;;30.20;16.05;;;4.50;98.70;;;;;;5156296;27;20038;-81
2022/01/15 13:13:38;;;;;;;37.30;15.57;;;4.50;98.70;;;;;;5137251;27;20055;-80
2022/01/15 13:16:16;;;;;;;33.05;15.30;;;4.40;98.60;;;;;;5138694;27;20115;-79
2022/01/15 13:18:47;;;;;;;38.72;18.02;;;4.40;98.60;;;;;;5155651;27;20115;-79
2022/01/15 13:21:20;;;;;;;50.10;17.60;;;4.50;98.60;;;;;;5153548;27;20031;-80